Time;durP1;ratioP1;P1;durP2;ratioP2;P2;SDS_P1;SDS_P2;PMS_P1;PMS_P2;Temp;Humidity;BMP_temperature;BMP_pressure;BME280_temperature;BME280_humidity;BME280_pressure;Samples;Min_cycle;Max_cycle;Signal;HPM_P1;HPM_P2
2022/01/25 00:10:39;;;;;;;30.83;17.73;;;;;;;;;;5013885;28;20451;-77
2022/01/25 00:26:39;;;;;;;29.77;15.80;;;;;;;;;;5013444;28;20821;-77
2022/01/25 00:31:33;;;;;;;25.77;16.10;;;;;;;;;;5013580;28;20455;-77
2022/01/25 00:33:59;;;;;;;27.60;15.70;;;;;;;;;;5013741;28;20428;-77
2022/01/25 00:36:26;;;;;;;29.53;16.70;;;;;;;;;;5013555;28;20399;-77
2022/01/25 00:38:53;;;;;;;31.57;16.97;;;;;;;;;;5013753;28;20490;-77
2022/01/25 00:41:19;;;;;;;26.87;16.03;;;;;;;;;;5013360;28;20404;-76
2022/01/25 00:43:45;;;;;;;28.60;16.70;;;;;;;;;;5036414;23;20537;-81
2022/01/25 00:46:12;;;;;;;29.13;17.43;;;;;;;;;;5017767;28;20507;-80
2022/01/25 00:53:58;;;;;;;28.33;16.30;;;;;;;;;;5019894;28;20822;-81
2022/01/25 00:56:26;;;;;;;25.57;15.67;;;;;;;;;;5020349;28;20479;-81
2022/01/25 00:58:52;;;;;;;26.40;16.90;;;;;;;;;;5018814;28;20404;-80
2022/01/25 01:01:19;;;;;;;29.23;16.13;;;;;;;;;;5020408;28;20407;-81
2022/01/25 01:03:45;;;;;;;37.30;16.13;;;;;;;;;;5019807;28;20419;-81
2022/01/25 01:06:11;;;;;;;29.37;16.87;;;;;;;;;;5019502;28;20410;-81
2022/01/25 01:08:38;;;;;;;30.93;15.17;;;;;;;;;;5019531;28;20427;-78
2022/01/25 01:11:08;;;;;;;29.37;16.50;;;;;;;;;;5019669;28;20471;-81
2022/01/25 01:13:53;;;;;;;29.83;17.90;;;;;;;;;;5019103;28;20413;-81
2022/01/25 01:38:09;;;;;;;28.40;16.10;;;;;;;;;;5021917;28;20889;-80
2022/01/25 01:43:38;;;;;;;24.97;14.40;;;;;;;;;;4981149;28;20980;-80
2022/01/25 01:51:29;;;;;;;26.37;14.30;;;;;;;;;;5023112;28;20439;-81
2022/01/25 01:53:57;;;;;;;26.63;14.40;;;;;;;;;;5022515;28;20787;-80
2022/01/25 01:56:23;;;;;;;23.03;13.60;;;;;;;;;;5022233;28;20772;-80
2022/01/25 01:58:51;;;;;;;29.63;16.57;;;;;;;;;;5022033;28;20412;-80
2022/01/25 02:01:18;;;;;;;33.57;14.97;;;;;;;;;;5020716;28;20411;-80
2022/01/25 02:03:44;;;;;;;28.50;14.67;;;;;;;;;;5023494;28;20454;-79
2022/01/25 02:06:10;;;;;;;26.70;15.73;;;;;;;;;;5025741;28;20908;-80
2022/01/25 02:08:36;;;;;;;20.10;12.50;;;;;;;;;;5023631;28;20475;-81
2022/01/25 02:11:03;;;;;;;22.27;11.87;;;;;;;;;;5021525;28;20454;-81
2022/01/25 02:13:30;;;;;;;21.80;12.43;;;;;;;;;;5020207;28;20916;-81
2022/01/25 02:15:57;;;;;;;24.47;12.50;;;;;;;;;;5021544;28;20430;-81
2022/01/25 02:23:35;;;;;;;24.07;13.90;;;;;;;;;;5023523;28;20402;-81
2022/01/25 02:26:03;;;;;;;29.83;15.17;;;;;;;;;;5021495;28;20396;-81
2022/01/25 02:28:31;;;;;;;23.83;13.60;;;;;;;;;;5019903;28;20407;-81
2022/01/25 02:30:58;;;;;;;25.27;13.53;;;;;;;;;;5020146;28;20447;-81
2022/01/25 02:33:24;;;;;;;28.97;13.30;;;;;;;;;;5020121;28;20462;-81
2022/01/25 02:35:51;;;;;;;27.63;13.77;;;;;;;;;;5014803;28;20432;-81
2022/01/25 02:38:24;;;;;;;30.33;16.10;;;;;;;;;;5020162;28;20419;-80
2022/01/25 02:40:50;;;;;;;27.00;14.00;;;;;;;;;;5018085;28;20412;-81
2022/01/25 02:43:18;;;;;;;23.30;12.53;;;;;;;;;;5021136;28;20786;-81
2022/01/25 02:45:49;;;;;;;25.47;13.47;;;;;;;;;;5020194;28;20427;-81
2022/01/25 02:48:30;;;;;;;26.67;14.03;;;;;;;;;;5019497;28;20407;-81
2022/01/25 02:51:00;;;;;;;35.90;16.43;;;;;;;;;;5020411;28;20447;-81
2022/01/25 02:53:27;;;;;;;25.10;12.60;;;;;;;;;;5020963;28;20403;-81
2022/01/25 02:55:53;;;;;;;29.00;16.73;;;;;;;;;;5019860;28;20915;-81
2022/01/25 02:58:19;;;;;;;31.37;13.40;;;;;;;;;;5021153;28;20434;-81
2022/01/25 03:00:45;;;;;;;24.03;13.00;;;;;;;;;;5019862;28;20491;-81
2022/01/25 03:03:11;;;;;;;24.30;13.13;;;;;;;;;;5021343;28;20435;-81
2022/01/25 03:05:37;;;;;;;30.57;13.93;;;;;;;;;;5020789;28;20932;-81
2022/01/25 03:08:03;;;;;;;25.60;14.47;;;;;;;;;;5024084;28;20408;-81
2022/01/25 03:10:37;;;;;;;23.63;12.23;;;;;;;;;;5025028;28;20453;-81
2022/01/25 03:13:05;;;;;;;23.80;13.17;;;;;;;;;;5021834;28;20461;-80
2022/01/25 03:15:54;;;;;;;29.03;14.63;;;;;;;;;;5020330;28;20455;-81
2022/01/25 03:23:41;;;;;;;21.90;11.40;;;;;;;;;;5021995;28;20511;-81
2022/01/25 03:26:07;;;;;;;23.40;13.20;;;;;;;;;;5021096;28;20568;-80
2022/01/25 03:28:33;;;;;;;23.30;12.53;;;;;;;;;;5021966;28;20408;-82
2022/01/25 03:30:59;;;;;;;26.30;13.97;;;;;;;;;;5022271;28;20451;-81
2022/01/25 03:33:26;;;;;;;28.80;16.90;;;;;;;;;;5018102;28;20439;-79
2022/01/25 03:35:52;;;;;;;26.27;14.80;;;;;;;;;;5016030;28;20923;-80
2022/01/25 03:38:18;;;;;;;28.47;14.30;;;;;;;;;;5019992;28;20415;-81
2022/01/25 03:40:45;;;;;;;25.23;14.97;;;;;;;;;;5019472;28;20507;-79
2022/01/25 03:43:13;;;;;;;24.80;14.17;;;;;;;;;;5017622;28;20411;-80
2022/01/25 03:45:42;;;;;;;27.43;14.30;;;;;;;;;;5018535;28;20475;-80
2022/01/25 03:50:39;;;;;;;24.70;12.20;;;;;;;;;;5019688;28;20482;-81
2022/01/25 03:53:05;;;;;;;22.83;13.97;;;;;;;;;;5020086;28;20406;-81
2022/01/25 03:55:31;;;;;;;29.20;13.63;;;;;;;;;;5017686;28;20858;-80
2022/01/25 03:57:57;;;;;;;26.97;16.33;;;;;;;;;;5019149;28;20408;-81
2022/01/25 04:00:24;;;;;;;20.43;12.97;;;;;;;;;;5020276;28;20407;-81
2022/01/25 04:03:29;;;;;;;21.00;11.83;;;;;;;;;;5018934;28;20481;-81
2022/01/25 04:08:09;;;;;;;19.43;12.17;;;;;;;;;;5013755;28;20514;-81
2022/01/25 04:10:35;;;;;;;26.23;13.70;;;;;;;;;;5000286;28;20452;-80
2022/01/25 04:13:02;;;;;;;21.17;12.03;;;;;;;;;;5007091;28;20458;-80
2022/01/25 04:15:28;;;;;;;21.13;12.03;;;;;;;;;;5019570;28;20943;-81
2022/01/25 04:18:22;;;;;;;25.20;12.60;;;;;;;;;;5019165;28;20451;-80
2022/01/25 04:21:06;;;;;;;22.27;12.27;;;;;;;;;;5018406;28;20498;-80
2022/01/25 04:26:17;;;;;;;22.20;12.80;;;;;;;;;;5020107;28;20458;-80
2022/01/25 04:28:43;;;;;;;23.00;12.30;;;;;;;;;;5019665;28;20418;-80
2022/01/25 04:31:09;;;;;;;21.97;12.20;;;;;;;;;;5019278;28;20459;-79
2022/01/25 04:33:42;;;;;;;19.37;11.03;;;;;;;;;;5018059;28;20466;-81
2022/01/25 04:36:27;;;;;;;24.90;13.10;;;;;;;;;;5018238;28;20445;-81
2022/01/25 04:50:13;;;;;;;26.43;13.20;;;;;;;;;;5019992;28;20455;-80
2022/01/25 04:52:52;;;;;;;20.40;11.50;;;;;;;;;;5018857;28;20415;-81
2022/01/25 04:55:35;;;;;;;25.07;12.30;;;;;;;;;;5008365;28;20526;-81
2022/01/25 04:58:09;;;;;;;24.13;12.40;;;;;;;;;;4999889;28;20412;-81
2022/01/25 05:00:35;;;;;;;21.73;12.57;;;;;;;;;;5009660;28;20819;-81
2022/01/25 05:03:15;;;;;;;19.27;10.40;;;;;;;;;;5020354;28;20407;-81
2022/01/25 05:06:04;;;;;;;20.13;11.20;;;;;;;;;;5021661;28;20443;-81
2022/01/25 05:11:42;;;;;;;32.83;11.40;;;;;;;;;;5024274;28;20459;-81
2022/01/25 05:13:59;;;;;;;18.93;9.33;;;;;;;;;;5018029;28;20501;-81
2022/01/25 05:16:31;;;;;;;20.10;9.17;;;;;;;;;;5021933;28;20438;-81
2022/01/25 05:19:20;;;;;;;21.07;10.43;;;;;;;;;;5021675;28;20408;-80
2022/01/25 05:22:18;;;;;;;19.90;9.87;;;;;;;;;;5023229;28;20442;-81
2022/01/25 05:24:44;;;;;;;18.73;10.87;;;;;;;;;;5022948;28;20433;-81
2022/01/25 05:27:11;;;;;;;16.47;10.20;;;;;;;;;;5022632;28;20404;-81
2022/01/25 05:29:37;;;;;;;18.53;10.70;;;;;;;;;;5020903;28;20411;-81
2022/01/25 05:32:04;;;;;;;20.90;10.87;;;;;;;;;;5020977;28;20407;-81
2022/01/25 05:34:31;;;;;;;15.67;9.33;;;;;;;;;;5021575;28;20432;-81
2022/01/25 05:36:57;;;;;;;22.57;11.50;;;;;;;;;;5022270;28;20395;-80
2022/01/25 05:39:28;;;;;;;21.87;11.50;;;;;;;;;;5020949;28;20404;-81
2022/01/25 05:42:15;;;;;;;21.80;11.53;;;;;;;;;;5022839;28;20939;-81
2022/01/25 05:44:54;;;;;;;23.40;10.93;;;;;;;;;;5021477;28;20538;-81
2022/01/25 05:47:32;;;;;;;23.10;11.53;;;;;;;;;;5024851;28;20399;-80
2022/01/25 05:49:59;;;;;;;22.70;11.93;;;;;;;;;;5022219;28;20463;-80
2022/01/25 05:52:25;;;;;;;28.00;13.10;;;;;;;;;;5021088;28;20431;-81
2022/01/25 05:54:52;;;;;;;21.70;10.90;;;;;;;;;;5021491;28;20427;-81
2022/01/25 05:57:18;;;;;;;25.37;11.33;;;;;;;;;;5020425;28;20499;-81
2022/01/25 05:59:44;;;;;;;16.57;9.90;;;;;;;;;;5021509;28;20400;-80
2022/01/25 06:02:10;;;;;;;16.47;10.40;;;;;;;;;;5021475;28;20888;-81
2022/01/25 06:04:36;;;;;;;16.80;9.23;;;;;;;;;;5021920;28;20430;-81
2022/01/25 06:07:03;;;;;;;16.00;8.47;;;;;;;;;;5020500;28;20418;-81
2022/01/25 06:09:29;;;;;;;24.53;10.57;;;;;;;;;;5021605;28;20900;-81
2022/01/25 06:11:55;;;;;;;22.90;12.50;;;;;;;;;;5021470;28;20756;-81
2022/01/25 06:14:22;;;;;;;19.90;10.77;;;;;;;;;;5020008;28;20451;-81
2022/01/25 06:16:48;;;;;;;16.93;10.00;;;;;;;;;;5022126;28;20827;-80
2022/01/25 06:19:14;;;;;;;22.20;11.30;;;;;;;;;;5021485;28;20395;-81
2022/01/25 06:21:40;;;;;;;21.90;12.07;;;;;;;;;;5022424;28;20404;-80
2022/01/25 06:24:06;;;;;;;24.53;11.67;;;;;;;;;;5021929;28;20434;-81
2022/01/25 06:26:32;;;;;;;18.13;11.10;;;;;;;;;;5021654;28;20919;-81
2022/01/25 06:29:00;;;;;;;20.90;11.27;;;;;;;;;;5021910;28;20431;-81
2022/01/25 06:31:27;;;;;;;17.03;10.50;;;;;;;;;;5021078;28;20455;-81
2022/01/25 06:33:53;;;;;;;21.40;10.73;;;;;;;;;;5019028;28;20976;-81
2022/01/25 06:36:19;;;;;;;18.77;10.33;;;;;;;;;;5021114;28;20408;-81
2022/01/25 06:38:46;;;;;;;20.73;10.53;;;;;;;;;;5021225;28;20404;-80
2022/01/25 06:41:14;;;;;;;22.53;11.77;;;;;;;;;;5020316;28;20417;-80
2022/01/25 06:46:23;;;;;;;23.93;12.03;;;;;;;;;;5040159;28;20837;-82
2022/01/25 06:48:49;;;;;;;20.20;10.93;;;;;;;;;;5040637;28;20837;-82
2022/01/25 06:51:15;;;;;;;23.90;12.00;;;;;;;;;;5041228;28;20455;-81
2022/01/25 06:53:41;;;;;;;19.00;11.23;;;;;;;;;;5042628;28;20399;-81
2022/01/25 06:56:07;;;;;;;24.47;13.10;;;;;;;;;;5051017;28;20446;-80
2022/01/25 06:58:34;;;;;;;24.40;13.33;;;;;;;;;;5051720;28;20426;-80
2022/01/25 07:01:00;;;;;;;24.17;12.40;;;;;;;;;;5049835;28;20775;-81
2022/01/25 07:03:26;;;;;;;23.90;13.17;;;;;;;;;;5049256;28;20418;-80
2022/01/25 07:05:52;;;;;;;25.30;13.50;;;;;;;;;;5050992;28;20431;-81
2022/01/25 07:08:19;;;;;;;27.67;12.90;;;;;;;;;;5051056;28;20406;-79
2022/01/25 07:10:45;;;;;;;23.70;13.13;;;;;;;;;;5051827;28;20461;-80
2022/01/25 07:13:11;;;;;;;21.67;12.83;;;;;;;;;;5052122;28;20407;-78
2022/01/25 07:15:37;;;;;;;25.90;13.70;;;;;;;;;;5046756;28;21005;-82
2022/01/25 07:18:03;;;;;;;29.30;13.80;;;;;;;;;;5047311;28;20414;-81
2022/01/25 07:20:29;;;;;;;22.23;14.10;;;;;;;;;;5049054;28;20402;-81
2022/01/25 07:22:55;;;;;;;27.30;14.67;;;;;;;;;;5048818;28;20437;-79
2022/01/25 07:25:22;;;;;;;26.63;14.40;;;;;;;;;;5040116;28;20426;-83
2022/01/25 07:27:48;;;;;;;30.23;16.17;;;;;;;;;;5040848;28;20438;-82
2022/01/25 07:30:14;;;;;;;30.73;17.30;;;;;;;;;;5040646;28;20486;-82
2022/01/25 07:32:40;;;;;;;31.03;14.47;;;;;;;;;;5040605;28;20414;-82
2022/01/25 07:35:07;;;;;;;36.17;16.00;;;;;;;;;;5037979;28;20419;-80
2022/01/25 07:37:33;;;;;;;26.70;13.80;;;;;;;;;;5038782;28;20449;-81
2022/01/25 07:39:59;;;;;;;27.13;15.00;;;;;;;;;;5037874;28;20415;-80
2022/01/25 07:42:28;;;;;;;29.20;15.63;;;;;;;;;;5037740;28;20439;-80
2022/01/25 07:44:54;;;;;;;28.20;14.97;;;;;;;;;;5036555;28;20457;-82
2022/01/25 07:47:20;;;;;;;31.07;15.63;;;;;;;;;;5039431;28;20775;-82
2022/01/25 07:49:46;;;;;;;30.83;17.47;;;;;;;;;;5039074;28;20413;-82
2022/01/25 07:52:13;;;;;;;28.87;15.83;;;;;;;;;;5039544;28;20407;-82
2022/01/25 07:54:39;;;;;;;31.53;15.73;;;;;;;;;;5038442;28;20525;-81
2022/01/25 07:57:05;;;;;;;28.80;16.90;;;;;;;;;;5038423;28;20526;-82
2022/01/25 07:59:31;;;;;;;28.80;15.77;;;;;;;;;;5038469;28;20406;-81
2022/01/25 08:01:57;;;;;;;26.83;15.27;;;;;;;;;;5027831;28;20422;-82
2022/01/25 08:04:23;;;;;;;33.50;17.60;;;;;;;;;;5031708;28;20438;-80
2022/01/25 08:06:49;;;;;;;31.93;17.70;;;;;;;;;;5035228;28;20445;-82
2022/01/25 08:09:15;;;;;;;29.77;17.17;;;;;;;;;;5034280;28;20407;-80
2022/01/25 08:11:43;;;;;;;31.47;16.00;;;;;;;;;;5031068;28;20447;-81
2022/01/25 08:14:13;;;;;;;34.17;19.17;;;;;;;;;;5027622;28;20439;-81
2022/01/25 08:16:40;;;;;;;28.83;16.97;;;;;;;;;;5035965;28;20407;-80
2022/01/25 08:19:07;;;;;;;28.40;15.60;;;;;;;;;;5030607;28;20908;-81
2022/01/25 08:21:33;;;;;;;26.33;16.20;;;;;;;;;;5035223;28;20450;-80
2022/01/25 08:23:59;;;;;;;28.00;16.70;;;;;;;;;;5033586;28;20430;-80
2022/01/25 08:26:25;;;;;;;26.57;14.90;;;;;;;;;;5038342;28;20502;-80
2022/01/25 08:28:51;;;;;;;31.80;16.63;;;;;;;;;;5035663;28;20803;-81
2022/01/25 08:31:19;;;;;;;28.60;16.90;;;;;;;;;;5049409;28;20814;-80
2022/01/25 08:33:45;;;;;;;28.77;16.47;;;;;;;;;;5043470;28;21038;-79
2022/01/25 08:36:11;;;;;;;29.00;16.60;;;;;;;;;;5042140;28;20435;-80
2022/01/25 08:38:37;;;;;;;29.00;17.53;;;;;;;;;;5033215;28;20411;-80
2022/01/25 08:41:06;;;;;;;26.47;17.00;;;;;;;;;;5026890;28;20926;-81
2022/01/25 08:43:32;;;;;;;29.93;15.97;;;;;;;;;;5027634;28;20794;-80
2022/01/25 08:45:59;;;;;;;29.90;17.17;;;;;;;;;;5026927;28;20458;-81
2022/01/25 08:48:25;;;;;;;26.50;16.87;;;;;;;;;;5026712;28;20451;-81
2022/01/25 08:50:51;;;;;;;26.10;15.40;;;;;;;;;;5032722;28;20488;-81
2022/01/25 08:53:18;;;;;;;32.97;16.60;;;;;;;;;;5027378;28;20499;-82
2022/01/25 08:55:44;;;;;;;28.20;16.33;;;;;;;;;;5026717;28;20522;-81
2022/01/25 08:58:10;;;;;;;26.47;15.97;;;;;;;;;;5035423;28;20426;-81
2022/01/25 09:00:36;;;;;;;35.70;24.43;;;;;;;;;;5029382;28;20471;-82
2022/01/25 09:03:03;;;;;;;27.07;17.37;;;;;;;;;;5035297;28;20972;-81
2022/01/25 09:05:30;;;;;;;29.00;16.97;;;;;;;;;;5032752;28;20473;-83
2022/01/25 09:07:57;;;;;;;28.57;16.77;;;;;;;;;;5031432;28;20410;-82
2022/01/25 09:10:26;;;;;;;23.50;15.27;;;;;;;;;;5032678;28;20485;-81
2022/01/25 09:12:53;;;;;;;29.93;16.67;;;;;;;;;;5028200;28;20442;-82
2022/01/25 09:15:20;;;;;;;29.00;16.93;;;;;;;;;;5027454;28;20485;-82
2022/01/25 09:17:46;;;;;;;28.73;16.40;;;;;;;;;;5025410;28;20422;-82
2022/01/25 09:20:12;;;;;;;31.43;17.10;;;;;;;;;;5023958;28;20416;-82
2022/01/25 09:22:38;;;;;;;26.97;17.20;;;;;;;;;;5026431;28;20909;-82
2022/01/25 09:25:05;;;;;;;27.60;17.77;;;;;;;;;;5032085;28;20434;-82
2022/01/25 09:27:31;;;;;;;29.77;16.97;;;;;;;;;;5033297;28;20847;-82
2022/01/25 09:30:00;;;;;;;31.57;19.47;;;;;;;;;;5025628;28;20546;-81
2022/01/25 09:32:26;;;;;;;31.10;16.83;;;;;;;;;;5030413;28;20439;-82
2022/01/25 09:34:55;;;;;;;28.83;17.60;;;;;;;;;;5028678;28;20443;-82
2022/01/25 09:37:21;;;;;;;32.53;17.37;;;;;;;;;;5036472;28;20453;-81
2022/01/25 09:39:47;;;;;;;26.67;17.20;;;;;;;;;;5032549;28;20406;-81
2022/01/25 09:42:13;;;;;;;25.03;15.37;;;;;;;;;;5032859;28;20502;-80
2022/01/25 09:44:40;;;;;;;27.70;17.77;;;;;;;;;;5029334;28;20458;-82
2022/01/25 09:47:07;;;;;;;28.10;17.03;;;;;;;;;;5025803;28;20506;-82
2022/01/25 09:49:34;;;;;;;27.67;17.17;;;;;;;;;;5031789;28;20426;-82
2022/01/25 09:52:04;;;;;;;32.90;17.50;;;;;;;;;;5046044;28;20457;-80
2022/01/25 09:54:34;;;;;;;28.37;16.07;;;;;;;;;;5036256;28;20970;-81
2022/01/25 09:57:01;;;;;;;25.10;16.27;;;;;;;;;;5027506;28;20430;-82
2022/01/25 09:59:27;;;;;;;26.53;14.60;;;;;;;;;;5035970;28;21219;-81
2022/01/25 10:01:54;;;;;;;25.97;16.30;;;;;;;;;;5032708;28;20506;-80
2022/01/25 10:04:27;;;;;;;26.50;16.97;;;;;;;;;;5034812;28;20441;-80
2022/01/25 10:06:53;;;;;;;26.40;16.80;;;;;;;;;;5030123;28;20779;-82
2022/01/25 10:09:20;;;;;;;25.80;16.53;;;;;;;;;;5032978;28;20420;-82
2022/01/25 10:11:47;;;;;;;29.00;17.23;;;;;;;;;;5027824;28;20578;-83
2022/01/25 10:14:13;;;;;;;25.20;16.50;;;;;;;;;;5030458;28;20481;-80
2022/01/25 10:16:42;;;;;;;25.70;16.40;;;;;;;;;;5034399;28;20482;-81
2022/01/25 10:19:10;;;;;;;26.23;16.10;;;;;;;;;;5030638;28;20420;-81
2022/01/25 10:21:40;;;;;;;28.33;16.37;;;;;;;;;;5029888;28;20434;-81
2022/01/25 10:24:19;;;;;;;28.10;16.63;;;;;;;;;;5035473;28;20514;-81
2022/01/25 10:26:50;;;;;;;28.27;16.77;;;;;;;;;;5031699;28;20422;-82
2022/01/25 10:29:18;;;;;;;30.73;17.67;;;;;;;;;;5033724;28;20482;-80
2022/01/25 10:31:57;;;;;;;30.23;17.40;;;;;;;;;;5025545;28;20462;-81
2022/01/25 10:34:27;;;;;;;23.77;15.60;;;;;;;;;;5036139;28;20445;-81
2022/01/25 10:36:54;;;;;;;27.20;17.70;;;;;;;;;;5026551;28;20440;-81
2022/01/25 10:39:26;;;;;;;29.70;17.00;;;;;;;;;;5037074;28;20502;-82
2022/01/25 10:41:52;;;;;;;22.10;14.97;;;;;;;;;;5031287;28;20407;-80
2022/01/25 10:44:18;;;;;;;27.00;15.77;;;;;;;;;;5033159;28;20791;-80
2022/01/25 10:46:44;;;;;;;20.40;13.97;;;;;;;;;;5037071;28;20410;-81
2022/01/25 10:49:12;;;;;;;21.53;13.50;;;;;;;;;;5029040;28;20425;-81
2022/01/25 10:51:40;;;;;;;24.87;14.90;;;;;;;;;;5028065;28;20450;-81
2022/01/25 10:54:11;;;;;;;23.43;14.47;;;;;;;;;;5034613;28;20441;-80
2022/01/25 10:56:38;;;;;;;22.97;13.27;;;;;;;;;;5031910;28;20419;-80
2022/01/25 10:59:05;;;;;;;22.90;14.23;;;;;;;;;;5037253;28;20423;-80
2022/01/25 11:01:33;;;;;;;23.87;14.73;;;;;;;;;;5030892;28;20530;-80
2022/01/25 11:04:09;;;;;;;28.40;15.33;;;;;;;;;;5051402;28;20503;-79
2022/01/25 11:06:36;;;;;;;22.47;12.70;;;;;;;;;;5034846;28;20923;-80
2022/01/25 11:09:05;;;;;;;21.80;13.03;;;;;;;;;;5020322;28;20966;-80
2022/01/25 11:11:38;;;;;;;25.40;14.03;;;;;;;;;;5027154;28;20974;-80
2022/01/25 11:16:49;;;;;;;20.17;11.57;;;;;;;;;;5023456;28;20422;-81
2022/01/25 11:19:16;;;;;;;19.43;12.20;;;;;;;;;;5030639;28;20407;-81
2022/01/25 11:21:45;;;;;;;18.43;11.43;;;;;;;;;;5038974;28;20423;-80
2022/01/25 11:24:15;;;;;;;18.60;11.17;;;;;;;;;;5041569;28;20473;-81
2022/01/25 11:26:42;;;;;;;13.20;9.30;;;;;;;;;;5037767;28;20408;-80
2022/01/25 11:29:09;;;;;;;16.63;10.17;;;;;;;;;;5037678;28;20472;-80
2022/01/25 11:31:35;;;;;;;15.73;10.57;;;;;;;;;;5028608;28;20465;-81
2022/01/25 11:34:01;;;;;;;12.67;8.53;;;;;;;;;;5040246;28;20435;-79
2022/01/25 11:36:31;;;;;;;13.20;9.00;;;;;;;;;;5038638;28;20487;-80
2022/01/25 11:38:57;;;;;;;11.67;8.27;;;;;;;;;;5037408;28;20756;-81
2022/01/25 11:41:24;;;;;;;13.47;9.10;;;;;;;;;;5027787;28;20431;-82
2022/01/25 11:44:09;;;;;;;16.30;9.87;;;;;;;;;;5030442;28;20438;-82
2022/01/25 11:46:36;;;;;;;15.33;10.20;;;;;;;;;;5025229;28;20470;-82
2022/01/25 11:49:07;;;;;;;10.80;8.07;;;;;;;;;;5032004;28;20488;-82
2022/01/25 11:51:34;;;;;;;13.70;9.00;;;;;;;;;;5026394;28;21002;-81
2022/01/25 11:54:01;;;;;;;12.43;8.37;;;;;;;;;;5029800;28;20431;-82
2022/01/25 11:56:28;;;;;;;14.30;9.30;;;;;;;;;;5032320;28;20498;-82
2022/01/25 11:58:55;;;;;;;12.63;7.60;;;;;;;;;;5024976;28;20443;-80
2022/01/25 12:01:23;;;;;;;10.53;7.77;;;;;;;;;;5030168;28;20543;-81
2022/01/25 12:03:59;;;;;;;12.60;6.87;;;;;;;;;;5028569;28;20441;-81
2022/01/25 12:06:31;;;;;;;11.30;8.53;;;;;;;;;;5023337;28;20956;-83
2022/01/25 12:09:10;;;;;;;9.20;6.50;;;;;;;;;;5025221;28;20477;-81
2022/01/25 12:11:46;;;;;;;16.77;9.10;;;;;;;;;;5030234;28;20885;-81
2022/01/25 12:14:22;;;;;;;15.23;9.57;;;;;;;;;;5032646;28;20806;-82
2022/01/25 12:16:48;;;;;;;11.40;8.23;;;;;;;;;;5024438;28;20411;-81
2022/01/25 12:19:15;;;;;;;16.83;9.20;;;;;;;;;;5034928;28;20427;-81
2022/01/25 12:21:49;;;;;;;20.40;11.50;;;;;;;;;;5033682;28;20427;-81
2022/01/25 12:24:26;;;;;;;19.37;11.80;;;;;;;;;;5019961;28;20537;-82
2022/01/25 12:27:03;;;;;;;23.90;11.80;;;;;;;;;;5026717;28;20427;-83
2022/01/25 12:29:30;;;;;;;17.63;11.33;;;;;;;;;;5030967;28;20414;-82
2022/01/25 12:32:15;;;;;;;14.40;10.70;;;;;;;;;;5033759;28;20802;-82
2022/01/25 12:35:19;;;;;;;14.40;10.77;;;;;;;;;;5023532;28;20454;-82
2022/01/25 12:37:46;;;;;;;16.37;10.00;;;;;;;;;;5018352;28;20861;-82
2022/01/25 12:40:31;;;;;;;14.70;10.07;;;;;;;;;;5005823;28;20812;-81
2022/01/25 12:42:57;;;;;;;19.03;11.90;;;;;;;;;;5024407;28;20422;-82
2022/01/25 12:45:24;;;;;;;16.07;10.47;;;;;;;;;;5029296;28;20566;-82
2022/01/25 12:48:04;;;;;;;14.97;9.33;;;;;;;;;;5023956;28;20832;-82
2022/01/25 12:50:30;;;;;;;15.27;9.43;;;;;;;;;;5034330;28;20533;-82
2022/01/25 12:52:59;;;;;;;13.23;9.67;;;;;;;;;;5033195;28;20453;-82
2022/01/25 12:55:29;;;;;;;14.30;8.93;;;;;;;;;;5034703;28;20435;-82
2022/01/25 12:57:55;;;;;;;11.70;8.50;;;;;;;;;;5025124;28;20487;-82
2022/01/25 13:00:37;;;;;;;12.17;8.93;;;;;;;;;;5028309;28;20588;-83
2022/01/25 13:03:17;;;;;;;15.10;9.30;;;;;;;;;;5032143;28;20426;-82
2022/01/25 13:05:55;;;;;;;11.60;9.13;;;;;;;;;;5029326;28;20977;-80
2022/01/25 13:08:25;;;;;;;10.70;8.00;;;;;;;;;;5034073;28;20448;-80
2022/01/25 13:10:54;;;;;;;12.30;7.60;;;;;;;;;;5028513;28;20454;-81
2022/01/25 13:13:27;;;;;;;11.23;8.63;;;;;;;;;;5032305;28;20426;-81
2022/01/25 13:15:56;;;;;;;11.07;7.80;;;;;;;;;;5027565;28;20442;-82
2022/01/25 13:18:23;;;;;;;13.00;8.80;;;;;;;;;;5030601;28;20442;-82
2022/01/25 13:20:58;;;;;;;11.23;7.97;;;;;;;;;;5035532;28;20462;-81
2022/01/25 13:23:25;;;;;;;13.60;8.27;;;;;;;;;;5032768;28;20418;-82
2022/01/25 13:26:05;;;;;;;12.70;8.20;;;;;;;;;;5062014;23;20493;-82
2022/01/25 13:28:51;;;;;;;12.40;8.77;;;;;;;;;;5054784;28;20422;-82
2022/01/25 13:31:27;;;;;;;13.13;8.82;;;;;;;;;;5051821;28;20439;-82
2022/01/25 13:33:54;;;;;;;13.37;9.50;;;;;;;;;;5059743;28;20243;-81
2022/01/25 13:36:20;;;;;;;12.83;8.87;;;;;;;;;;5049095;28;20438;-82
2022/01/25 13:38:49;;;;;;;14.77;9.43;;;;;;;;;;5052481;28;20314;-82
2022/01/25 13:41:28;;;;;;;13.07;9.60;;;;;;;;;;5056934;28;20172;-81
2022/01/25 13:46:40;;;;;;;16.37;12.23;;;;;;;;;;5054877;28;20912;-83
2022/01/25 13:49:12;;;;;;;19.17;14.40;;;;;;;;;;5054056;28;20560;-82
2022/01/25 13:51:46;;;;;;;21.50;13.37;;;;;;;;;;5054301;28;20445;-82
2022/01/25 13:54:14;;;;;;;21.57;13.63;;;;;;;;;;5051337;28;20438;-83
2022/01/25 13:56:40;;;;;;;22.17;12.90;;;;;;;;;;5052663;28;20494;-82
2022/01/25 13:59:06;;;;;;;22.37;14.17;;;;;;;;;;5060315;28;20488;-79
2022/01/25 14:01:34;;;;;;;21.10;13.70;;;;;;;;;;5058512;28;20444;-81
2022/01/25 14:04:00;;;;;;;19.23;13.60;;;;;;;;;;5063888;28;20457;-82
2022/01/25 14:06:28;;;;;;;21.73;14.23;;;;;;;;;;5061097;28;20440;-83
2022/01/25 14:09:00;;;;;;;25.13;14.93;;;;;;;;;;5063320;28;20422;-82
2022/01/25 14:22:34;;;;;;;21.37;14.73;;;;;;;;;;5059627;28;20444;-81
2022/01/25 14:25:00;;;;;;;21.07;14.43;;;;;;;;;;5060251;28;20441;-80
2022/01/25 14:27:40;;;;;;;19.73;13.50;;;;;;;;;;5056609;28;20474;-79
2022/01/25 14:30:06;;;;;;;17.37;13.20;;;;;;;;;;5052171;28;20481;-80
2022/01/25 14:32:33;;;;;;;20.20;14.23;;;;;;;;;;5064430;28;20485;-79
2022/01/25 14:35:06;;;;;;;18.60;12.93;;;;;;;;;;5055793;28;20450;-80
2022/01/25 14:37:33;;;;;;;18.70;13.93;;;;;;;;;;5049944;28;20476;-81
2022/01/25 14:40:11;;;;;;;18.20;12.33;;;;;;;;;;5055601;28;20500;-79
2022/01/25 14:42:38;;;;;;;20.00;14.00;;;;;;;;;;5051402;28;20430;-80
2022/01/25 14:45:06;;;;;;;17.97;12.10;;;;;;;;;;5045634;28;20894;-80
2022/01/25 14:47:37;;;;;;;18.87;13.37;;;;;;;;;;5051046;28;20414;-82
2022/01/25 14:50:04;;;;;;;17.07;12.40;;;;;;;;;;5054809;28;20402;-80
2022/01/25 14:52:30;;;;;;;17.43;12.73;;;;;;;;;;5042885;28;20403;-80
2022/01/25 14:54:56;;;;;;;20.17;14.67;;;;;;;;;;5064629;28;20414;-81
2022/01/25 14:57:26;;;;;;;21.25;14.57;;;;;;;;;;5066699;28;20432;-82
2022/01/25 14:59:59;;;;;;;20.30;14.30;;;;;;;;;;5062198;28;20168;-80
2022/01/25 15:02:26;;;;;;;19.23;13.90;;;;;;;;;;5058893;28;20446;-82
2022/01/25 15:04:54;;;;;;;21.00;14.87;;;;;;;;;;5060926;28;20410;-82
2022/01/25 15:07:22;;;;;;;22.07;14.87;;;;;;;;;;5053465;28;20953;-81
2022/01/25 15:09:56;;;;;;;21.53;12.93;;;;;;;;;;5060128;28;20414;-80
2022/01/25 15:12:25;;;;;;;21.77;14.27;;;;;;;;;;5054726;28;20513;-80
2022/01/25 15:15:06;;;;;;;24.20;13.90;;;;;;;;;;5051092;28;20406;-81
2022/01/25 15:17:33;;;;;;;23.33;16.50;;;;;;;;;;5054655;28;20756;-81
2022/01/25 15:19:59;;;;;;;17.60;12.93;;;;;;;;;;5047946;28;20421;-81
2022/01/25 15:22:27;;;;;;;25.53;15.90;;;;;;;;;;5045881;28;20879;-79
2022/01/25 15:24:53;;;;;;;27.93;17.33;;;;;;;;;;5042486;28;20493;-80
2022/01/25 15:27:23;;;;;;;23.83;16.63;;;;;;;;;;5043976;28;20978;-80
2022/01/25 15:29:49;;;;;;;23.13;16.33;;;;;;;;;;5047650;28;20415;-80
2022/01/25 15:32:15;;;;;;;25.27;16.50;;;;;;;;;;5049802;28;20447;-79
2022/01/25 15:34:43;;;;;;;30.17;19.90;;;;;;;;;;5049579;28;20417;-80
2022/01/25 15:37:11;;;;;;;32.97;18.13;;;;;;;;;;5048915;28;20441;-80
2022/01/25 15:39:37;;;;;;;30.93;19.10;;;;;;;;;;5055395;28;20421;-80
2022/01/25 15:42:03;;;;;;;32.80;20.00;;;;;;;;;;5046745;28;20477;-80
2022/01/25 15:44:50;;;;;;;27.93;19.00;;;;;;;;;;5051122;28;20410;-80
2022/01/25 15:47:19;;;;;;;29.10;19.27;;;;;;;;;;5045067;28;20438;-79
2022/01/25 15:49:45;;;;;;;31.97;19.87;;;;;;;;;;5049947;28;20418;-80
2022/01/25 15:52:12;;;;;;;34.27;19.03;;;;;;;;;;5057229;28;20536;-81
2022/01/25 15:54:38;;;;;;;28.80;18.70;;;;;;;;;;5063414;28;20422;-80
2022/01/25 15:57:06;;;;;;;35.87;21.67;;;;;;;;;;5052393;28;21302;-80
2022/01/25 15:59:32;;;;;;;31.63;20.07;;;;;;;;;;5050678;28;20418;-81
2022/01/25 16:02:09;;;;;;;30.80;20.43;;;;;;;;;;5055855;28;20414;-79
2022/01/25 16:04:41;;;;;;;33.40;20.90;;;;;;;;;;5050310;28;20414;-80
2022/01/25 16:07:07;;;;;;;41.93;22.77;;;;;;;;;;5056568;28;20432;-81
2022/01/25 16:09:33;;;;;;;37.73;20.87;;;;;;;;;;5051864;28;20442;-81
2022/01/25 16:11:59;;;;;;;36.03;23.00;;;;;;;;;;5058131;28;20992;-81
2022/01/25 16:14:25;;;;;;;34.57;21.03;;;;;;;;;;5060311;28;20463;-82
2022/01/25 16:16:51;;;;;;;36.83;23.87;;;;;;;;;;5068274;28;20441;-80
2022/01/25 16:19:18;;;;;;;35.17;21.50;;;;;;;;;;5051861;28;20448;-81
2022/01/25 16:21:44;;;;;;;37.30;21.17;;;;;;;;;;5058113;28;20556;-81